sensor_id;sensor_type;location;lat;lon;timestamp;P1;durP1;ratioP1;P2;durP2;ratioP2
73474;SDS011;61711;52.266;10.542;2023-04-01T00:01:17;6.45;;;1.90;;
73474;SDS011;61711;52.266;10.542;2023-04-01T00:03:43;3.42;;;1.40;;
73474;SDS011;61711;52.266;10.542;2023-04-01T00:06:11;5.68;;;1.50;;
73474;SDS011;61711;52.266;10.542;2023-04-01T00:08:38;5.03;;;1.77;;
73474;SDS011;61711;52.266;10.542;2023-04-01T00:11:04;3.95;;;1.30;;
73474;SDS011;61711;52.266;10.542;2023-04-01T00:13:30;5.53;;;1.30;;
73474;SDS011;61711;52.266;10.542;2023-04-01T00:15:57;4.05;;;1.58;;
73474;SDS011;61711;52.266;10.542;2023-04-01T00:18:23;5.20;;;1.90;;
73474;SDS011;61711;52.266;10.542;2023-04-01T00:20:50;5.18;;;2.00;;
73474;SDS011;61711;52.266;10.542;2023-04-01T00:23:17;5.78;;;1.67;;
73474;SDS011;61711;52.266;10.542;2023-04-01T00:25:44;5.63;;;1.75;;
73474;SDS011;61711;52.266;10.542;2023-04-01T00:28:11;6.28;;;1.60;;
73474;SDS011;61711;52.266;10.542;2023-04-01T00:30:37;2.92;;;1.40;;
73474;SDS011;61711;52.266;10.542;2023-04-01T00:33:04;3.75;;;1.30;;
73474;SDS011;61711;52.266;10.542;2023-04-01T00:35:30;4.90;;;1.48;;
73474;SDS011;61711;52.266;10.542;2023-04-01T00:37:57;4.60;;;1.15;;
73474;SDS011;61711;52.266;10.542;2023-04-01T00:40:33;3.53;;;1.30;;
73474;SDS011;61711;52.266;10.542;2023-04-01T00:43:00;3.17;;;1.25;;
73474;SDS011;61711;52.266;10.542;2023-04-01T00:47:55;6.82;;;1.50;;
73474;SDS011;61711;52.266;10.542;2023-04-01T00:50:22;3.25;;;1.48;;
73474;SDS011;61711;52.266;10.542;2023-04-01T00:52:50;3.65;;;1.20;;
73474;SDS011;61711;52.266;10.542;2023-04-01T00:55:16;4.57;;;1.10;;
73474;SDS011;61711;52.266;10.542;2023-04-01T00:57:44;4.22;;;1.20;;
73474;SDS011;61711;52.266;10.542;2023-04-01T01:00:11;3.95;;;1.38;;
73474;SDS011;61711;52.266;10.542;2023-04-01T01:02:40;3.05;;;1.20;;
73474;SDS011;61711;52.266;10.542;2023-04-01T01:05:07;3.47;;;1.23;;
73474;SDS011;61711;52.266;10.542;2023-04-01T01:10:47;2.78;;;1.05;;
73474;SDS011;61711;52.266;10.542;2023-04-01T01:16:00;2.92;;;1.10;;
73474;SDS011;61711;52.266;10.542;2023-04-01T01:18:42;6.68;;;1.30;;
73474;SDS011;61711;52.266;10.542;2023-04-01T01:37:05;1.75;;;0.85;;
73474;SDS011;61711;52.266;10.542;2023-04-01T01:39:34;2.72;;;0.88;;
73474;SDS011;61711;52.266;10.542;2023-04-01T01:42:01;3.80;;;1.13;;
73474;SDS011;61711;52.266;10.542;2023-04-01T01:44:28;3.47;;;1.08;;
73474;SDS011;61711;52.266;10.542;2023-04-01T01:46:56;2.78;;;0.90;;
73474;SDS011;61711;52.266;10.542;2023-04-01T01:49:22;2.88;;;1.20;;
73474;SDS011;61711;52.266;10.542;2023-04-01T01:51:49;3.80;;;1.10;;
73474;SDS011;61711;52.266;10.542;2023-04-01T01:54:16;3.58;;;1.02;;
73474;SDS011;61711;52.266;10.542;2023-04-01T01:56:43;3.65;;;1.00;;
73474;SDS011;61711;52.266;10.542;2023-04-01T01:59:10;3.55;;;0.93;;
73474;SDS011;61711;52.266;10.542;2023-04-01T02:01:39;2.45;;;0.82;;
73474;SDS011;61711;52.266;10.542;2023-04-01T02:04:05;3.08;;;1.30;;
73474;SDS011;61711;52.266;10.542;2023-04-01T02:06:32;3.75;;;1.10;;
73474;SDS011;61711;52.266;10.542;2023-04-01T02:09:00;3.25;;;1.10;;
73474;SDS011;61711;52.266;10.542;2023-04-01T02:11:50;3.97;;;1.25;;
73474;SDS011;61711;52.266;10.542;2023-04-01T02:14:21;3.78;;;1.00;;
73474;SDS011;61711;52.266;10.542;2023-04-01T02:19:14;3.78;;;1.30;;
73474;SDS011;61711;52.266;10.542;2023-04-01T02:21:47;2.58;;;1.13;;
73474;SDS011;61711;52.266;10.542;2023-04-01T02:24:14;6.10;;;1.38;;
73474;SDS011;61711;52.266;10.542;2023-04-01T02:26:40;3.22;;;1.13;;
73474;SDS011;61711;52.266;10.542;2023-04-01T02:29:07;4.22;;;1.20;;
73474;SDS011;61711;52.266;10.542;2023-04-01T02:31:34;3.42;;;1.30;;
73474;SDS011;61711;52.266;10.542;2023-04-01T02:34:01;5.15;;;1.30;;
73474;SDS011;61711;52.266;10.542;2023-04-01T02:36:28;2.65;;;1.10;;
73474;SDS011;61711;52.266;10.542;2023-04-01T02:38:54;2.83;;;1.20;;
73474;SDS011;61711;52.266;10.542;2023-04-01T02:41:21;3.33;;;1.40;;
73474;SDS011;61711;52.266;10.542;2023-04-01T02:43:47;3.40;;;1.30;;
73474;SDS011;61711;52.266;10.542;2023-04-01T02:46:14;3.42;;;1.20;;
73474;SDS011;61711;52.266;10.542;2023-04-01T02:48:40;3.22;;;1.35;;
73474;SDS011;61711;52.266;10.542;2023-04-01T02:51:07;2.65;;;1.20;;
73474;SDS011;61711;52.266;10.542;2023-04-01T02:53:33;3.58;;;1.20;;
73474;SDS011;61711;52.266;10.542;2023-04-01T02:56:00;3.72;;;1.38;;
73474;SDS011;61711;52.266;10.542;2023-04-01T02:58:26;2.47;;;1.13;;
73474;SDS011;61711;52.266;10.542;2023-04-01T03:00:52;3.45;;;1.40;;
73474;SDS011;61711;52.266;10.542;2023-04-01T03:03:18;3.80;;;1.10;;
73474;SDS011;61711;52.266;10.542;2023-04-01T03:05:44;2.55;;;1.10;;
73474;SDS011;61711;52.266;10.542;2023-04-01T03:08:10;3.97;;;1.30;;
73474;SDS011;61711;52.266;10.542;2023-04-01T03:10:36;4.78;;;1.70;;
73474;SDS011;61711;52.266;10.542;2023-04-01T03:13:02;2.95;;;1.08;;
73474;SDS011;61711;52.266;10.542;2023-04-01T03:15:28;3.50;;;1.42;;
73474;SDS011;61711;52.266;10.542;2023-04-01T03:17:55;5.57;;;1.60;;
73474;SDS011;61711;52.266;10.542;2023-04-01T03:20:21;1.60;;;1.25;;
73474;SDS011;61711;52.266;10.542;2023-04-01T03:22:47;3.55;;;1.40;;
73474;SDS011;61711;52.266;10.542;2023-04-01T03:25:13;4.28;;;1.30;;
73474;SDS011;61711;52.266;10.542;2023-04-01T03:27:39;3.80;;;1.38;;
73474;SDS011;61711;52.266;10.542;2023-04-01T03:30:06;2.75;;;1.30;;
73474;SDS011;61711;52.266;10.542;2023-04-01T03:32:32;2.90;;;1.30;;
73474;SDS011;61711;52.266;10.542;2023-04-01T03:34:58;2.47;;;1.23;;
73474;SDS011;61711;52.266;10.542;2023-04-01T03:37:24;2.83;;;1.50;;
73474;SDS011;61711;52.266;10.542;2023-04-01T03:39:50;2.80;;;1.33;;
73474;SDS011;61711;52.266;10.542;2023-04-01T03:42:16;3.30;;;1.45;;
73474;SDS011;61711;52.266;10.542;2023-04-01T03:44:42;5.05;;;1.70;;
73474;SDS011;61711;52.266;10.542;2023-04-01T03:47:08;3.08;;;1.23;;
73474;SDS011;61711;52.266;10.542;2023-04-01T03:49:35;5.03;;;1.88;;
73474;SDS011;61711;52.266;10.542;2023-04-01T03:52:01;4.85;;;1.25;;
73474;SDS011;61711;52.266;10.542;2023-04-01T03:54:27;2.65;;;1.27;;
73474;SDS011;61711;52.266;10.542;2023-04-01T03:56:53;4.35;;;2.10;;
73474;SDS011;61711;52.266;10.542;2023-04-01T03:59:20;4.65;;;1.85;;
73474;SDS011;61711;52.266;10.542;2023-04-01T04:01:46;3.83;;;1.50;;
73474;SDS011;61711;52.266;10.542;2023-04-01T04:04:12;3.92;;;1.50;;
73474;SDS011;61711;52.266;10.542;2023-04-01T04:06:39;3.40;;;1.50;;
73474;SDS011;61711;52.266;10.542;2023-04-01T04:09:05;4.28;;;1.80;;
73474;SDS011;61711;52.266;10.542;2023-04-01T04:11:31;3.83;;;1.50;;
73474;SDS011;61711;52.266;10.542;2023-04-01T04:13:58;4.95;;;1.50;;
73474;SDS011;61711;52.266;10.542;2023-04-01T04:16:24;3.53;;;1.55;;
73474;SDS011;61711;52.266;10.542;2023-04-01T04:18:50;3.40;;;1.30;;
73474;SDS011;61711;52.266;10.542;2023-04-01T04:21:16;3.97;;;1.48;;
73474;SDS011;61711;52.266;10.542;2023-04-01T04:23:42;3.38;;;1.60;;
73474;SDS011;61711;52.266;10.542;2023-04-01T04:26:10;3.08;;;1.50;;
73474;SDS011;61711;52.266;10.542;2023-04-01T04:28:36;1.83;;;1.20;;
73474;SDS011;61711;52.266;10.542;2023-04-01T04:31:02;2.55;;;1.10;;
73474;SDS011;61711;52.266;10.542;2023-04-01T04:33:30;2.88;;;1.35;;
73474;SDS011;61711;52.266;10.542;2023-04-01T04:35:57;3.38;;;1.20;;
73474;SDS011;61711;52.266;10.542;2023-04-01T04:38:23;1.85;;;1.05;;
73474;SDS011;61711;52.266;10.542;2023-04-01T04:40:49;3.25;;;1.10;;
73474;SDS011;61711;52.266;10.542;2023-04-01T04:43:16;2.75;;;1.17;;
73474;SDS011;61711;52.266;10.542;2023-04-01T04:45:42;3.40;;;1.30;;
73474;SDS011;61711;52.266;10.542;2023-04-01T04:48:09;2.50;;;1.10;;
73474;SDS011;61711;52.266;10.542;2023-04-01T04:50:35;2.65;;;1.08;;
73474;SDS011;61711;52.266;10.542;2023-04-01T04:53:02;2.65;;;1.20;;
73474;SDS011;61711;52.266;10.542;2023-04-01T04:55:28;3.08;;;1.35;;
73474;SDS011;61711;52.266;10.542;2023-04-01T04:57:54;2.60;;;1.23;;
73474;SDS011;61711;52.266;10.542;2023-04-01T05:00:20;3.75;;;1.30;;
73474;SDS011;61711;52.266;10.542;2023-04-01T05:02:46;4.13;;;1.20;;
73474;SDS011;61711;52.266;10.542;2023-04-01T05:05:12;3.92;;;1.27;;
73474;SDS011;61711;52.266;10.542;2023-04-01T05:07:38;3.85;;;1.30;;
73474;SDS011;61711;52.266;10.542;2023-04-01T05:10:04;3.15;;;1.25;;
73474;SDS011;61711;52.266;10.542;2023-04-01T05:12:30;3.22;;;1.27;;
73474;SDS011;61711;52.266;10.542;2023-04-01T05:15:01;2.83;;;1.30;;
73474;SDS011;61711;52.266;10.542;2023-04-01T05:17:27;3.13;;;1.48;;
73474;SDS011;61711;52.266;10.542;2023-04-01T05:19:53;2.35;;;1.30;;
73474;SDS011;61711;52.266;10.542;2023-04-01T05:22:19;5.00;;;1.30;;
73474;SDS011;61711;52.266;10.542;2023-04-01T05:24:45;3.72;;;1.40;;
73474;SDS011;61711;52.266;10.542;2023-04-01T05:27:11;2.53;;;1.42;;
73474;SDS011;61711;52.266;10.542;2023-04-01T05:29:37;3.70;;;1.65;;
73474;SDS011;61711;52.266;10.542;2023-04-01T05:32:03;4.05;;;1.50;;
73474;SDS011;61711;52.266;10.542;2023-04-01T05:34:29;3.78;;;1.52;;
73474;SDS011;61711;52.266;10.542;2023-04-01T05:36:55;3.97;;;1.48;;
73474;SDS011;61711;52.266;10.542;2023-04-01T05:39:21;3.60;;;1.67;;
73474;SDS011;61711;52.266;10.542;2023-04-01T05:41:48;2.90;;;1.52;;
73474;SDS011;61711;52.266;10.542;2023-04-01T05:44:14;2.85;;;1.50;;
73474;SDS011;61711;52.266;10.542;2023-04-01T05:46:40;3.05;;;1.70;;
73474;SDS011;61711;52.266;10.542;2023-04-01T05:49:07;4.38;;;1.70;;
73474;SDS011;61711;52.266;10.542;2023-04-01T05:51:33;2.13;;;1.45;;
73474;SDS011;61711;52.266;10.542;2023-04-01T05:53:59;2.72;;;1.42;;
73474;SDS011;61711;52.266;10.542;2023-04-01T05:56:25;3.58;;;1.60;;
73474;SDS011;61711;52.266;10.542;2023-04-01T05:58:53;3.45;;;1.50;;
73474;SDS011;61711;52.266;10.542;2023-04-01T06:01:19;4.70;;;1.42;;
73474;SDS011;61711;52.266;10.542;2023-04-01T06:03:45;3.50;;;1.38;;
73474;SDS011;61711;52.266;10.542;2023-04-01T06:06:30;3.80;;;1.75;;
73474;SDS011;61711;52.266;10.542;2023-04-01T06:08:57;4.47;;;1.50;;
73474;SDS011;61711;52.266;10.542;2023-04-01T06:11:34;4.50;;;1.58;;
73474;SDS011;61711;52.266;10.542;2023-04-01T06:14:07;2.58;;;1.48;;
73474;SDS011;61711;52.266;10.542;2023-04-01T06:26:39;2.67;;;1.25;;
73474;SDS011;61711;52.266;10.542;2023-04-01T06:29:24;3.08;;;1.50;;
73474;SDS011;61711;52.266;10.542;2023-04-01T06:42:02;3.75;;;1.67;;
73474;SDS011;61711;52.266;10.542;2023-04-01T06:47:32;2.13;;;1.38;;
73474;SDS011;61711;52.266;10.542;2023-04-01T06:52:42;2.33;;;1.30;;
73474;SDS011;61711;52.266;10.542;2023-04-01T06:55:27;3.63;;;1.40;;
73474;SDS011;61711;52.266;10.542;2023-04-01T06:57:55;3.75;;;1.40;;
73474;SDS011;61711;52.266;10.542;2023-04-01T07:00:26;2.40;;;1.38;;
73474;SDS011;61711;52.266;10.542;2023-04-01T07:03:40;3.40;;;1.40;;
73474;SDS011;61711;52.266;10.542;2023-04-01T07:05:39;3.78;;;1.45;;
73474;SDS011;61711;52.266;10.542;2023-04-01T07:08:08;2.63;;;1.30;;
73474;SDS011;61711;52.266;10.542;2023-04-01T07:13:03;2.55;;;1.00;;
73474;SDS011;61711;52.266;10.542;2023-04-01T07:15:34;2.33;;;1.00;;
73474;SDS011;61711;52.266;10.542;2023-04-01T07:18:03;3.92;;;1.20;;
73474;SDS011;61711;52.266;10.542;2023-04-01T07:20:32;4.20;;;1.20;;
73474;SDS011;61711;52.266;10.542;2023-04-01T07:22:59;2.10;;;1.10;;
73474;SDS011;61711;52.266;10.542;2023-04-01T07:25:27;1.23;;;1.00;;
73474;SDS011;61711;52.266;10.542;2023-04-01T07:27:56;2.72;;;1.08;;
73474;SDS011;61711;52.266;10.542;2023-04-01T07:30:26;3.75;;;0.80;;
73474;SDS011;61711;52.266;10.542;2023-04-01T07:33:03;2.38;;;1.20;;
73474;SDS011;61711;52.266;10.542;2023-04-01T07:35:31;1.67;;;0.90;;
73474;SDS011;61711;52.266;10.542;2023-04-01T07:38:20;1.98;;;1.00;;
73474;SDS011;61711;52.266;10.542;2023-04-01T07:40:49;2.13;;;0.93;;
73474;SDS011;61711;52.266;10.542;2023-04-01T07:48:51;1.33;;;0.80;;
73474;SDS011;61711;52.266;10.542;2023-04-01T07:51:22;2.45;;;0.93;;
73474;SDS011;61711;52.266;10.542;2023-04-01T07:53:51;2.45;;;1.10;;
73474;SDS011;61711;52.266;10.542;2023-04-01T07:58:59;1.20;;;0.90;;
73474;SDS011;61711;52.266;10.542;2023-04-01T08:01:36;2.42;;;0.88;;
73474;SDS011;61711;52.266;10.542;2023-04-01T08:20:00;1.92;;;0.80;;
73474;SDS011;61711;52.266;10.542;2023-04-01T08:22:33;1.65;;;0.90;;
73474;SDS011;61711;52.266;10.542;2023-04-01T08:25:01;2.42;;;0.95;;
73474;SDS011;61711;52.266;10.542;2023-04-01T08:27:37;1.92;;;0.90;;
73474;SDS011;61711;52.266;10.542;2023-04-01T08:30:24;12.90;;;6.72;;
73474;SDS011;61711;52.266;10.542;2023-04-01T08:32:52;2.47;;;1.77;;
73474;SDS011;61711;52.266;10.542;2023-04-01T08:37:46;1.90;;;0.90;;
73474;SDS011;61711;52.266;10.542;2023-04-01T08:40:22;0.80;;;0.65;;
73474;SDS011;61711;52.266;10.542;2023-04-01T08:45:39;2.05;;;0.88;;
73474;SDS011;61711;52.266;10.542;2023-04-01T08:48:22;1.65;;;0.60;;
73474;SDS011;61711;52.266;10.542;2023-04-01T08:56:06;2.35;;;1.00;;
73474;SDS011;61711;52.266;10.542;2023-04-01T08:59:24;2.55;;;0.70;;
73474;SDS011;61711;52.266;10.542;2023-04-01T09:01:51;1.30;;;0.90;;
73474;SDS011;61711;52.266;10.542;2023-04-01T09:07:12;1.52;;;0.70;;
73474;SDS011;61711;52.266;10.542;2023-04-01T09:28:30;1.90;;;1.02;;
73474;SDS011;61711;52.266;10.542;2023-04-01T09:31:17;1.85;;;0.60;;
73474;SDS011;61711;52.266;10.542;2023-04-01T09:33:53;1.35;;;0.90;;
73474;SDS011;61711;52.266;10.542;2023-04-01T09:38:55;0.50;;;0.43;;
73474;SDS011;61711;52.266;10.542;2023-04-01T09:43:57;1.17;;;0.70;;
73474;SDS011;61711;52.266;10.542;2023-04-01T09:49:04;0.70;;;0.52;;
73474;SDS011;61711;52.266;10.542;2023-04-01T09:54:10;2.50;;;1.00;;
73474;SDS011;61711;52.266;10.542;2023-04-01T10:17:39;0.95;;;0.70;;
73474;SDS011;61711;52.266;10.542;2023-04-01T10:32:48;3.92;;;1.27;;
73474;SDS011;61711;52.266;10.542;2023-04-01T10:38:19;1.50;;;0.90;;
73474;SDS011;61711;52.266;10.542;2023-04-01T10:43:34;1.20;;;0.80;;
73474;SDS011;61711;52.266;10.542;2023-04-01T10:54:18;1.30;;;0.60;;
73474;SDS011;61711;52.266;10.542;2023-04-01T10:56:51;0.80;;;0.57;;
73474;SDS011;61711;52.266;10.542;2023-04-01T10:59:28;0.50;;;0.50;;
73474;SDS011;61711;52.266;10.542;2023-04-01T11:12:38;0.57;;;0.50;;
73474;SDS011;61711;52.266;10.542;2023-04-01T11:18:09;0.93;;;0.50;;
73474;SDS011;61711;52.266;10.542;2023-04-01T11:23:13;0.90;;;0.43;;
73474;SDS011;61711;52.266;10.542;2023-04-01T11:33:02;0.55;;;0.50;;
73474;SDS011;61711;52.266;10.542;2023-04-01T11:38:06;0.63;;;0.45;;
73474;SDS011;61711;52.266;10.542;2023-04-01T11:40:37;2.20;;;1.00;;
73474;SDS011;61711;52.266;10.542;2023-04-01T11:43:08;1.60;;;1.00;;
73474;SDS011;61711;52.266;10.542;2023-04-01T11:45:46;1.50;;;0.75;;
73474;SDS011;61711;52.266;10.542;2023-04-01T11:51:28;1.05;;;0.90;;
73474;SDS011;61711;52.266;10.542;2023-04-01T11:56:39;4.22;;;0.82;;
73474;SDS011;61711;52.266;10.542;2023-04-01T12:01:59;1.10;;;0.73;;
73474;SDS011;61711;52.266;10.542;2023-04-01T12:07:06;1.85;;;0.70;;
73474;SDS011;61711;52.266;10.542;2023-04-01T12:25:28;2.05;;;1.10;;
73474;SDS011;61711;52.266;10.542;2023-04-01T12:28:05;1.40;;;0.80;;
73474;SDS011;61711;52.266;10.542;2023-04-01T12:33:36;1.95;;;0.50;;
73474;SDS011;61711;52.266;10.542;2023-04-01T12:38:50;3.97;;;1.00;;
73474;SDS011;61711;52.266;10.542;2023-04-01T12:41:26;1.85;;;1.00;;
73474;SDS011;61711;52.266;10.542;2023-04-01T12:44:08;1.88;;;0.80;;
73474;SDS011;61711;52.266;10.542;2023-04-01T12:46:47;2.47;;;1.10;;
73474;SDS011;61711;52.266;10.542;2023-04-01T13:10:20;2.72;;;1.08;;
73474;SDS011;61711;52.266;10.542;2023-04-01T13:20:35;2.05;;;1.30;;
73474;SDS011;61711;52.266;10.542;2023-04-01T13:23:08;2.67;;;1.45;;
73474;SDS011;61711;52.266;10.542;2023-04-01T13:33:32;4.07;;;1.55;;
73474;SDS011;61711;52.266;10.542;2023-04-01T13:36:11;2.33;;;1.20;;
73474;SDS011;61711;52.266;10.542;2023-04-01T13:43:49;2.72;;;1.70;;
73474;SDS011;61711;52.266;10.542;2023-04-01T13:49:37;1.95;;;1.75;;
73474;SDS011;61711;52.266;10.542;2023-04-01T13:54:32;4.45;;;2.10;;
73474;SDS011;61711;52.266;10.542;2023-04-01T14:04:54;3.35;;;1.67;;
73474;SDS011;61711;52.266;10.542;2023-04-01T14:07:36;2.05;;;1.50;;
73474;SDS011;61711;52.266;10.542;2023-04-01T14:15:53;2.97;;;1.30;;
73474;SDS011;61711;52.266;10.542;2023-04-01T14:24:06;2.22;;;1.67;;
73474;SDS011;61711;52.266;10.542;2023-04-01T14:39:00;2.85;;;1.50;;
73474;SDS011;61711;52.266;10.542;2023-04-01T14:41:32;1.60;;;1.38;;
73474;SDS011;61711;52.266;10.542;2023-04-01T14:44:09;2.25;;;1.38;;
73474;SDS011;61711;52.266;10.542;2023-04-01T14:50:01;1.65;;;1.35;;
73474;SDS011;61711;52.266;10.542;2023-04-01T14:52:27;1.63;;;1.30;;
73474;SDS011;61711;52.266;10.542;2023-04-01T14:54:54;1.90;;;1.30;;
73474;SDS011;61711;52.266;10.542;2023-04-01T14:57:24;1.63;;;1.50;;
73474;SDS011;61711;52.266;10.542;2023-04-01T14:59:53;2.67;;;1.67;;
73474;SDS011;61711;52.266;10.542;2023-04-01T15:08:01;3.05;;;1.75;;
73474;SDS011;61711;52.266;10.542;2023-04-01T15:13:14;2.60;;;1.85;;
73474;SDS011;61711;52.266;10.542;2023-04-01T15:18:07;1.95;;;1.65;;
73474;SDS011;61711;52.266;10.542;2023-04-01T15:23:17;2.50;;;1.80;;
73474;SDS011;61711;52.266;10.542;2023-04-01T15:33:42;2.60;;;1.60;;
73474;SDS011;61711;52.266;10.542;2023-04-01T15:46:53;2.25;;;1.48;;
73474;SDS011;61711;52.266;10.542;2023-04-01T15:54:47;2.03;;;1.58;;
73474;SDS011;61711;52.266;10.542;2023-04-01T15:57:19;2.40;;;1.70;;
73474;SDS011;61711;52.266;10.542;2023-04-01T15:59:53;2.60;;;1.73;;
73474;SDS011;61711;52.266;10.542;2023-04-01T16:04:56;2.95;;;1.92;;
73474;SDS011;61711;52.266;10.542;2023-04-01T16:10:21;2.20;;;1.35;;
73474;SDS011;61711;52.266;10.542;2023-04-01T16:12:53;2.80;;;1.60;;
73474;SDS011;61711;52.266;10.542;2023-04-01T16:15:29;1.50;;;1.40;;
73474;SDS011;61711;52.266;10.542;2023-04-01T16:20:40;1.45;;;1.33;;
73474;SDS011;61711;52.266;10.542;2023-04-01T16:23:22;1.70;;;1.33;;
73474;SDS011;61711;52.266;10.542;2023-04-01T16:28:33;2.15;;;1.30;;
73474;SDS011;61711;52.266;10.542;2023-04-01T16:31:06;1.77;;;1.27;;
73474;SDS011;61711;52.266;10.542;2023-04-01T16:41:18;2.45;;;1.42;;
73474;SDS011;61711;52.266;10.542;2023-04-01T16:43:46;1.83;;;1.20;;
73474;SDS011;61711;52.266;10.542;2023-04-01T16:46:26;2.53;;;1.33;;
73474;SDS011;61711;52.266;10.542;2023-04-01T16:51:40;1.60;;;1.20;;
73474;SDS011;61711;52.266;10.542;2023-04-01T16:54:13;1.92;;;1.30;;
73474;SDS011;61711;52.266;10.542;2023-04-01T16:56:48;1.30;;;1.20;;
73474;SDS011;61711;52.266;10.542;2023-04-01T17:01:49;2.50;;;1.77;;
73474;SDS011;61711;52.266;10.542;2023-04-01T17:04:19;2.10;;;1.83;;
73474;SDS011;61711;52.266;10.542;2023-04-01T17:14:27;2.22;;;1.70;;
73474;SDS011;61711;52.266;10.542;2023-04-01T17:37:19;1.85;;;1.40;;
73474;SDS011;61711;52.266;10.542;2023-04-01T17:44:53;1.80;;;1.42;;
73474;SDS011;61711;52.266;10.542;2023-04-01T17:47:37;4.07;;;1.70;;
73474;SDS011;61711;52.266;10.542;2023-04-01T18:00:57;2.45;;;1.67;;
73474;SDS011;61711;52.266;10.542;2023-04-01T18:06:17;1.75;;;1.15;;
73474;SDS011;61711;52.266;10.542;2023-04-01T18:18:37;1.50;;;1.25;;
73474;SDS011;61711;52.266;10.542;2023-04-01T18:21:10;3.58;;;1.50;;
73474;SDS011;61711;52.266;10.542;2023-04-01T18:26:24;1.30;;;1.20;;
73474;SDS011;61711;52.266;10.542;2023-04-01T18:28:57;1.90;;;1.27;;
73474;SDS011;61711;52.266;10.542;2023-04-01T18:31:26;1.60;;;1.50;;
73474;SDS011;61711;52.266;10.542;2023-04-01T18:36:33;1.55;;;1.20;;
73474;SDS011;61711;52.266;10.542;2023-04-01T18:39:03;2.42;;;1.27;;
73474;SDS011;61711;52.266;10.542;2023-04-01T18:41:51;2.30;;;1.60;;
73474;SDS011;61711;52.266;10.542;2023-04-01T18:44:25;2.22;;;1.60;;
73474;SDS011;61711;52.266;10.542;2023-04-01T18:47:08;3.45;;;1.70;;
73474;SDS011;61711;52.266;10.542;2023-04-01T18:49:41;3.70;;;2.28;;
73474;SDS011;61711;52.266;10.542;2023-04-01T18:54:45;2.25;;;1.67;;
73474;SDS011;61711;52.266;10.542;2023-04-01T18:57:15;2.10;;;1.40;;
73474;SDS011;61711;52.266;10.542;2023-04-01T18:59:46;1.73;;;1.35;;
73474;SDS011;61711;52.266;10.542;2023-04-01T19:02:24;2.35;;;1.17;;
73474;SDS011;61711;52.266;10.542;2023-04-01T19:12:49;2.10;;;1.70;;
73474;SDS011;61711;52.266;10.542;2023-04-01T19:20:26;1.70;;;1.55;;
73474;SDS011;61711;52.266;10.542;2023-04-01T19:23:12;2.40;;;1.80;;
73474;SDS011;61711;52.266;10.542;2023-04-01T19:31:04;2.80;;;1.90;;
73474;SDS011;61711;52.266;10.542;2023-04-01T19:33:37;2.10;;;1.80;;
73474;SDS011;61711;52.266;10.542;2023-04-01T19:38:37;1.73;;;1.52;;
73474;SDS011;61711;52.266;10.542;2023-04-01T19:41:10;3.80;;;2.03;;
73474;SDS011;61711;52.266;10.542;2023-04-01T19:43:44;4.18;;;3.05;;
73474;SDS011;61711;52.266;10.542;2023-04-01T19:46:18;5.30;;;2.90;;
73474;SDS011;61711;52.266;10.542;2023-04-01T19:51:44;5.47;;;3.53;;
73474;SDS011;61711;52.266;10.542;2023-04-01T19:54:24;6.15;;;3.78;;
73474;SDS011;61711;52.266;10.542;2023-04-01T19:57:05;5.28;;;3.55;;
73474;SDS011;61711;52.266;10.542;2023-04-01T20:04:34;8.65;;;5.10;;
73474;SDS011;61711;52.266;10.542;2023-04-01T20:12:12;10.27;;;4.70;;
73474;SDS011;61711;52.266;10.542;2023-04-01T20:14:46;7.03;;;4.22;;
73474;SDS011;61711;52.266;10.542;2023-04-01T20:27:47;7.22;;;3.40;;
73474;SDS011;61711;52.266;10.542;2023-04-01T20:30:27;5.00;;;3.22;;
73474;SDS011;61711;52.266;10.542;2023-04-01T20:40:43;5.60;;;3.38;;
73474;SDS011;61711;52.266;10.542;2023-04-01T20:43:23;5.80;;;3.33;;
73474;SDS011;61711;52.266;10.542;2023-04-01T20:51:05;5.10;;;3.13;;
73474;SDS011;61711;52.266;10.542;2023-04-01T20:53:51;5.53;;;3.08;;
73474;SDS011;61711;52.266;10.542;2023-04-01T21:01:51;5.28;;;3.70;;
73474;SDS011;61711;52.266;10.542;2023-04-01T21:06:52;8.68;;;4.47;;
73474;SDS011;61711;52.266;10.542;2023-04-01T21:09:24;6.18;;;3.70;;
73474;SDS011;61711;52.266;10.542;2023-04-01T21:12:28;5.80;;;3.50;;
73474;SDS011;61711;52.266;10.542;2023-04-01T21:14:55;6.75;;;3.58;;
73474;SDS011;61711;52.266;10.542;2023-04-01T21:27:45;7.15;;;3.88;;
73474;SDS011;61711;52.266;10.542;2023-04-01T21:32:55;7.28;;;3.90;;
73474;SDS011;61711;52.266;10.542;2023-04-01T21:40:29;8.05;;;4.20;;
73474;SDS011;61711;52.266;10.542;2023-04-01T21:43:05;9.50;;;3.97;;
73474;SDS011;61711;52.266;10.542;2023-04-01T22:07:17;9.48;;;4.20;;
73474;SDS011;61711;52.266;10.542;2023-04-01T22:12:17;7.70;;;3.85;;
73474;SDS011;61711;52.266;10.542;2023-04-01T22:14:55;8.52;;;4.35;;
73474;SDS011;61711;52.266;10.542;2023-04-01T22:17:26;7.88;;;4.15;;
73474;SDS011;61711;52.266;10.542;2023-04-01T22:22:34;9.23;;;4.18;;
73474;SDS011;61711;52.266;10.542;2023-04-01T22:25:09;7.45;;;4.63;;
73474;SDS011;61711;52.266;10.542;2023-04-01T22:27:39;7.18;;;4.13;;
73474;SDS011;61711;52.266;10.542;2023-04-01T22:30:24;6.80;;;4.03;;
73474;SDS011;61711;52.266;10.542;2023-04-01T22:32:50;7.43;;;4.10;;
73474;SDS011;61711;52.266;10.542;2023-04-01T22:40:23;7.30;;;4.30;;
73474;SDS011;61711;52.266;10.542;2023-04-01T22:43:08;8.95;;;4.50;;
73474;SDS011;61711;52.266;10.542;2023-04-01T22:45:42;9.05;;;4.47;;
73474;SDS011;61711;52.266;10.542;2023-04-01T22:48:23;10.43;;;4.93;;
73474;SDS011;61711;52.266;10.542;2023-04-01T22:56:03;8.77;;;4.78;;
73474;SDS011;61711;52.266;10.542;2023-04-01T22:58:32;10.18;;;5.10;;
73474;SDS011;61711;52.266;10.542;2023-04-01T23:00:59;10.32;;;5.10;;
73474;SDS011;61711;52.266;10.542;2023-04-01T23:03:31;9.65;;;5.03;;
73474;SDS011;61711;52.266;10.542;2023-04-01T23:05:58;10.20;;;4.90;;
73474;SDS011;61711;52.266;10.542;2023-04-01T23:11:14;8.95;;;5.28;;
73474;SDS011;61711;52.266;10.542;2023-04-01T23:13:44;10.52;;;4.75;;
73474;SDS011;61711;52.266;10.542;2023-04-01T23:16:13;10.18;;;4.95;;
73474;SDS011;61711;52.266;10.542;2023-04-01T23:26:19;12.95;;;5.28;;
73474;SDS011;61711;52.266;10.542;2023-04-01T23:31:29;8.75;;;4.80;;
73474;SDS011;61711;52.266;10.542;2023-04-01T23:34:20;11.43;;;4.78;;
73474;SDS011;61711;52.266;10.542;2023-04-01T23:36:42;9.10;;;4.40;;
73474;SDS011;61711;52.266;10.542;2023-04-01T23:39:52;7.30;;;4.45;;
73474;SDS011;61711;52.266;10.542;2023-04-01T23:42:03;14.32;;;4.50;;
73474;SDS011;61711;52.266;10.542;2023-04-01T23:44:30;9.73;;;4.22;;
73474;SDS011;61711;52.266;10.542;2023-04-01T23:46:57;10.18;;;4.35;;
73474;SDS011;61711;52.266;10.542;2023-04-01T23:49:25;8.90;;;3.83;;
73474;SDS011;61711;52.266;10.542;2023-04-01T23:52:08;7.70;;;4.13;;
73474;SDS011;61711;52.266;10.542;2023-04-01T23:54:43;8.23;;;4.30;;
73474;SDS011;61711;52.266;10.542;2023-04-01T23:57:18;7.78;;;3.85;;
73474;SDS011;61711;52.266;10.542;2023-04-01T23:59:59;8.43;;;3.67;;
